createdAt,value
2022-11-03T00:02:02.221Z,8.27
2022-11-03T00:04:35.863Z,9.38
2022-11-03T00:07:07.982Z,7.72
2022-11-03T00:09:40.524Z,8.45
2022-11-03T00:12:12.596Z,7.70
2022-11-03T00:14:44.694Z,8.75
2022-11-03T00:17:16.817Z,8.18
2022-11-03T00:19:48.811Z,8.70
2022-11-03T00:22:21.038Z,8.05
2022-11-03T00:24:53.175Z,7.72
2022-11-03T00:27:25.165Z,8.48
2022-11-03T00:29:57.221Z,7.60
2022-11-03T00:32:29.225Z,7.93
2022-11-03T00:35:01.167Z,8.38
2022-11-03T00:37:33.265Z,8.75
2022-11-03T00:40:05.768Z,8.70
2022-11-03T00:42:39.110Z,8.00
2022-11-03T00:45:11.248Z,8.93
2022-11-03T00:48:01.785Z,9.18
2022-11-03T00:50:53.534Z,7.85
2022-11-03T00:53:54.115Z,8.88
2022-11-03T00:56:29.420Z,8.20
2022-11-03T00:59:05.293Z,9.25
2022-11-03T01:01:47.191Z,8.15
2022-11-03T01:04:44.257Z,8.13
2022-11-03T01:07:35.977Z,9.02
2022-11-03T01:10:09.711Z,9.27
2022-11-03T01:12:42.553Z,9.90
2022-11-03T01:15:14.790Z,10.95
2022-11-03T01:17:46.738Z,8.90
2022-11-03T01:20:18.777Z,9.63
2022-11-03T01:22:50.767Z,8.40
2022-11-03T01:25:23.051Z,7.50
2022-11-03T01:27:56.308Z,8.45
2022-11-03T01:30:28.343Z,8.23
2022-11-03T01:33:01.741Z,8.63
2022-11-03T01:35:33.997Z,7.68
2022-11-03T01:38:06.019Z,7.90
2022-11-03T01:40:37.978Z,8.55
2022-11-03T01:43:22.089Z,8.35
2022-11-03T01:46:09.527Z,9.05
2022-11-03T01:48:54.211Z,7.70
2022-11-03T01:51:43.239Z,8.13
2022-11-03T01:54:22.842Z,8.95
2022-11-03T01:56:59.924Z,8.02
2022-11-03T01:59:36.789Z,8.30
2022-11-03T02:02:09.505Z,8.43
2022-11-03T02:04:43.076Z,8.20
2022-11-03T02:07:38.376Z,8.32
2022-11-03T02:10:30.256Z,7.47
2022-11-03T02:13:08.712Z,7.47
2022-11-03T02:15:55.625Z,7.85
2022-11-03T02:18:33.477Z,8.45
2022-11-03T02:21:24.440Z,8.10
2022-11-03T02:24:27.470Z,8.80
2022-11-03T02:27:20.516Z,8.60
2022-11-03T02:29:52.626Z,8.90
2022-11-03T02:32:40.790Z,8.82
2022-11-03T02:35:35.879Z,9.30
2022-11-03T02:38:29.781Z,7.97
2022-11-03T02:41:07.636Z,8.00
2022-11-03T02:43:41.244Z,8.65
2022-11-03T02:46:15.913Z,8.68
2022-11-03T02:48:49.074Z,8.82
2022-11-03T02:51:21.145Z,8.65
2022-11-03T02:54:06.735Z,9.43
2022-11-03T02:57:18.646Z,9.45
2022-11-03T03:00:09.129Z,8.50
2022-11-03T03:02:52.292Z,8.98
2022-11-03T03:05:34.176Z,8.65
2022-11-03T03:08:09.773Z,9.88
2022-11-03T03:10:48.547Z,9.80
2022-11-03T03:13:22.665Z,10.75
2022-11-03T03:16:22.910Z,10.07
2022-11-03T03:19:17.773Z,8.82
2022-11-03T03:22:03.945Z,8.88
2022-11-03T03:24:53.484Z,9.20
2022-11-03T03:27:34.810Z,11.23
2022-11-03T03:30:11.162Z,10.02
2022-11-03T03:32:47.436Z,9.52
2022-11-03T03:35:26.435Z,9.95
2022-11-03T03:38:06.201Z,9.98
2022-11-03T03:40:46.693Z,9.85
2022-11-03T03:43:23.966Z,9.07
2022-11-03T03:46:02.869Z,10.00
2022-11-03T03:48:38.249Z,11.20
2022-11-03T03:51:12.698Z,10.13
2022-11-03T03:53:51.235Z,9.98
2022-11-03T03:56:36.958Z,10.77
2022-11-03T03:59:14.727Z,10.27
2022-11-03T04:01:46.796Z,10.20
2022-11-03T04:04:18.893Z,10.18
2022-11-03T04:07:10.988Z,11.50
2022-11-03T04:10:02.691Z,10.38
2022-11-03T04:12:53.204Z,10.40
2022-11-03T04:16:04.101Z,10.32
2022-11-03T04:19:14.375Z,11.13
2022-11-03T04:22:18.413Z,11.35
2022-11-03T04:24:52.448Z,11.93
2022-11-03T04:27:24.367Z,11.05
2022-11-03T04:30:16.922Z,11.65
2022-11-03T04:32:52.841Z,11.98
2022-11-03T04:35:27.516Z,11.18
2022-11-03T04:38:09.843Z,11.85
2022-11-03T04:40:55.838Z,9.52
2022-11-03T04:43:34.370Z,10.88
2022-11-03T04:46:11.969Z,10.15
2022-11-03T04:48:47.654Z,10.50
2022-11-03T04:51:24.517Z,10.15
2022-11-03T04:54:03.815Z,10.43
2022-11-03T04:56:44.644Z,11.63
2022-11-03T04:59:17.675Z,10.65
2022-11-03T05:01:50.181Z,10.10
2022-11-03T05:04:22.385Z,10.05
2022-11-03T05:06:54.395Z,11.38
2022-11-03T05:09:29.301Z,10.30
2022-11-03T05:12:02.440Z,10.85
2022-11-03T05:14:34.683Z,10.95
2022-11-03T05:17:26.120Z,10.23
2022-11-03T05:20:02.956Z,10.65
2022-11-03T05:22:36.797Z,9.32
2022-11-03T05:25:38.073Z,10.00
2022-11-03T05:28:21.435Z,9.90
2022-11-03T05:30:57.268Z,10.10
2022-11-03T05:33:35.502Z,9.90
2022-11-03T05:36:16.514Z,9.45
2022-11-03T05:38:58.767Z,10.18
2022-11-03T05:41:47.816Z,10.88
2022-11-03T05:44:31.906Z,10.77
2022-11-03T05:47:18.986Z,10.70
2022-11-03T05:49:59.727Z,11.15
2022-11-03T05:52:45.554Z,10.45
2022-11-03T05:55:29.898Z,10.52
2022-11-03T05:58:30.692Z,10.95
2022-11-03T06:01:29.769Z,10.77
2022-11-03T06:04:20.385Z,10.20
2022-11-03T06:07:10.585Z,10.57
2022-11-03T06:09:55.709Z,10.32
2022-11-03T06:12:30.711Z,10.82
2022-11-03T06:15:13.448Z,11.32
2022-11-03T06:18:00.567Z,10.50
2022-11-03T06:20:52.235Z,9.80
2022-11-03T06:23:27.374Z,12.63
2022-11-03T06:26:02.513Z,11.30
2022-11-03T06:28:37.310Z,10.10
2022-11-03T06:31:23.891Z,10.63
2022-11-03T06:33:59.402Z,11.02
2022-11-03T06:36:36.540Z,11.25
2022-11-03T06:39:21.283Z,10.45
2022-11-03T06:41:54.612Z,10.75
2022-11-03T06:44:31.038Z,11.13
2022-11-03T06:47:23.344Z,11.60
2022-11-03T06:49:59.601Z,11.07
2022-11-03T06:52:34.824Z,11.60
2022-11-03T06:55:26.614Z,11.55
2022-11-03T06:58:14.780Z,11.82
2022-11-03T07:01:03.626Z,10.73
2022-11-03T07:03:46.604Z,11.35
2022-11-03T07:06:25.189Z,10.60
2022-11-03T07:09:09.673Z,11.93
2022-11-03T07:11:51.870Z,10.65
2022-11-03T07:14:29.719Z,11.50
2022-11-03T07:17:15.101Z,10.00
2022-11-03T07:19:51.175Z,10.77
2022-11-03T07:22:26.205Z,11.63
2022-11-03T07:25:03.561Z,11.25
2022-11-03T07:27:40.754Z,10.65
2022-11-03T07:30:21.211Z,12.57
2022-11-03T07:33:12.453Z,12.70
2022-11-03T07:36:14.449Z,10.50
2022-11-03T07:38:51.476Z,12.20
2022-11-03T07:41:32.822Z,11.93
2022-11-03T07:44:13.974Z,12.45
2022-11-03T07:46:50.793Z,11.82
2022-11-03T07:49:30.123Z,11.50
2022-11-03T07:52:02.220Z,10.40
2022-11-03T07:54:39.570Z,11.73
2022-11-03T07:57:28.079Z,12.00
2022-11-03T08:00:10.666Z,11.15
2022-11-03T08:02:57.085Z,10.95
2022-11-03T08:05:31.025Z,11.68
2022-11-03T08:08:02.975Z,11.75
2022-11-03T08:10:35.219Z,11.50
2022-11-03T08:13:07.505Z,10.10
2022-11-03T08:15:39.769Z,11.32
2022-11-03T08:18:12.060Z,11.75
2022-11-03T08:20:44.327Z,11.55
2022-11-03T08:23:25.800Z,11.90
2022-11-03T08:25:58.515Z,12.35
2022-11-03T08:28:31.195Z,12.80
2022-11-03T08:31:12.246Z,9.70
2022-11-03T08:33:45.421Z,12.57
2022-11-03T08:36:17.662Z,10.98
2022-11-03T08:38:51.855Z,12.00
2022-11-03T08:41:23.962Z,11.65
2022-11-03T08:43:57.282Z,11.93
2022-11-03T08:46:29.607Z,12.65
2022-11-03T08:49:01.694Z,12.10
2022-11-03T08:51:33.995Z,12.25
2022-11-03T08:54:07.109Z,11.27
2022-11-03T08:56:39.100Z,10.20
2022-11-03T08:59:11.254Z,10.27
2022-11-03T09:01:44.908Z,9.75
2022-11-03T09:04:17.399Z,9.77
2022-11-03T09:06:49.600Z,10.18
2022-11-03T09:12:13.848Z,9.82
2022-11-03T09:14:45.781Z,11.30
2022-11-03T09:17:17.743Z,10.93
2022-11-03T09:19:49.754Z,11.25
2022-11-03T09:22:22.661Z,9.90
2022-11-03T09:24:54.655Z,8.48
2022-11-03T09:27:26.731Z,8.30
2022-11-03T09:30:12.715Z,7.55
2022-11-03T09:32:46.601Z,6.68
2022-11-03T09:35:20.508Z,6.00
2022-11-03T09:37:52.925Z,6.15
2022-11-03T09:40:25.516Z,5.93
2022-11-03T09:42:57.944Z,5.57
2022-11-03T09:45:31.901Z,4.28
2022-11-03T09:48:04.592Z,5.18
2022-11-03T09:50:41.581Z,4.40
2022-11-03T09:53:14.386Z,4.80
2022-11-03T09:55:46.413Z,3.95
2022-11-03T09:58:18.984Z,4.05
2022-11-03T10:00:51.238Z,3.42
2022-11-03T10:03:23.563Z,3.35
2022-11-03T10:05:56.147Z,3.50
2022-11-03T10:08:33.896Z,3.55
2022-11-03T10:11:16.606Z,4.05
2022-11-03T10:13:55.861Z,3.25
2022-11-03T10:16:28.470Z,3.22
2022-11-03T10:19:01.068Z,3.90
2022-11-03T10:21:37.977Z,3.75
2022-11-03T10:24:15.066Z,3.90
2022-11-03T10:26:52.542Z,3.88
2022-11-03T10:29:27.452Z,4.00
2022-11-03T10:32:00.594Z,3.58
2022-11-03T10:34:34.496Z,3.95
2022-11-03T10:37:28.411Z,4.10
2022-11-03T10:40:00.695Z,4.82
2022-11-03T10:42:35.817Z,4.45
2022-11-03T10:45:19.953Z,4.55
2022-11-03T10:48:02.287Z,5.22
2022-11-03T10:50:37.760Z,4.60
2022-11-03T10:53:18.643Z,3.90
2022-11-03T10:55:51.075Z,4.13
2022-11-03T10:58:24.685Z,4.28
2022-11-03T11:00:56.878Z,3.72
2022-11-03T11:03:30.770Z,4.40
2022-11-03T11:06:02.817Z,4.20
2022-11-03T11:08:35.029Z,4.45
2022-11-03T11:11:08.244Z,4.00
2022-11-03T11:13:41.204Z,3.65
2022-11-03T11:17:01.768Z,3.85
2022-11-03T11:20:13.088Z,3.83
2022-11-03T11:23:29.093Z,3.75
2022-11-03T11:26:25.673Z,3.22
2022-11-03T11:29:11.027Z,3.20
2022-11-03T11:32:41.371Z,3.30
2022-11-03T11:35:29.205Z,3.85
2022-11-03T11:38:45.850Z,3.75
2022-11-03T11:42:04.659Z,4.15
2022-11-03T11:44:55.085Z,4.60
2022-11-03T11:47:35.410Z,5.60
2022-11-03T11:50:25.642Z,5.47
2022-11-03T11:53:00.712Z,5.10
2022-11-03T11:55:47.015Z,5.00
2022-11-03T11:58:25.560Z,6.10
2022-11-03T12:01:30.931Z,6.25
2022-11-03T12:04:08.651Z,5.70
2022-11-03T12:06:58.656Z,5.93
2022-11-03T12:09:30.702Z,6.10
2022-11-03T12:12:08.653Z,6.03
2022-11-03T12:14:41.021Z,7.30
2022-11-03T12:17:19.313Z,6.10
2022-11-03T12:20:36.500Z,6.10
2022-11-03T12:23:41.368Z,6.38
2022-11-03T12:26:27.583Z,5.53
2022-11-03T12:29:19.375Z,6.32
2022-11-03T12:31:51.409Z,4.65
2022-11-03T12:34:24.892Z,6.28
2022-11-03T12:36:58.582Z,5.90
2022-11-03T12:39:30.601Z,5.82
2022-11-03T12:42:02.758Z,6.65
2022-11-03T12:44:38.678Z,6.35
2022-11-03T12:47:13.359Z,7.35
2022-11-03T12:49:45.390Z,7.25
2022-11-03T12:52:17.384Z,6.40
2022-11-03T12:54:49.489Z,7.47
2022-11-03T12:57:21.518Z,7.70
2022-11-03T12:59:53.741Z,6.43
2022-11-03T13:02:26.190Z,6.50
2022-11-03T13:04:58.945Z,6.72
2022-11-03T13:07:36.890Z,6.30
2022-11-03T13:10:10.232Z,6.15
2022-11-03T13:12:44.511Z,6.55
2022-11-03T13:15:20.448Z,6.10
2022-11-03T13:18:12.165Z,6.47
2022-11-03T13:20:45.085Z,6.57
2022-11-03T13:23:20.443Z,5.90
2022-11-03T13:25:55.167Z,6.38
2022-11-03T13:28:27.320Z,5.80
2022-11-03T13:30:59.417Z,5.47
2022-11-03T13:33:31.564Z,5.47
2022-11-03T13:36:04.096Z,5.68
2022-11-03T13:38:36.435Z,5.70
2022-11-03T13:41:09.354Z,4.70
2022-11-03T13:43:41.710Z,5.60
2022-11-03T13:46:13.992Z,4.85
2022-11-03T13:49:40.935Z,5.47
2022-11-03T13:51:38.017Z,7.65
2022-11-03T13:59:54.385Z,7.10
2022-11-03T14:05:22.166Z,6.70
2022-11-03T14:07:54.225Z,6.82
2022-11-03T14:10:26.546Z,7.85
2022-11-03T14:12:58.604Z,7.63
2022-11-03T14:15:30.675Z,7.13
2022-11-03T14:18:02.729Z,7.18
2022-11-03T14:20:34.888Z,7.60
2022-11-03T14:23:07.300Z,6.93
2022-11-03T14:25:39.626Z,7.32
2022-11-03T14:28:11.745Z,7.28
2022-11-03T14:30:43.827Z,7.20
2022-11-03T14:33:15.970Z,6.60
2022-11-03T14:35:47.948Z,8.00
2022-11-03T14:38:19.935Z,7.57
2022-11-03T14:41:10.678Z,6.57
2022-11-03T14:44:03.742Z,7.13
2022-11-03T14:46:36.620Z,6.30
2022-11-03T14:49:09.317Z,6.53
2022-11-03T14:51:41.603Z,6.38
2022-11-03T14:54:13.791Z,7.55
2022-11-03T14:56:45.958Z,7.32
2022-11-03T14:59:18.353Z,7.07
2022-11-03T15:01:52.359Z,6.90
2022-11-03T15:04:25.870Z,7.82
2022-11-03T15:06:58.214Z,6.97
2022-11-03T15:09:30.309Z,7.43
2022-11-03T15:12:02.510Z,8.02
2022-11-03T15:14:34.903Z,6.50
2022-11-03T15:17:07.273Z,6.50
2022-11-03T15:19:39.393Z,7.60
2022-11-03T15:22:11.440Z,7.75
2022-11-03T15:27:37.502Z,7.35
2022-11-03T15:30:10.442Z,7.45
2022-11-03T15:32:43.054Z,6.85
2022-11-03T15:35:15.805Z,6.55
2022-11-03T15:37:48.669Z,7.38
2022-11-03T15:40:21.201Z,6.65
2022-11-03T15:42:53.384Z,7.03
2022-11-03T15:45:26.099Z,7.13
2022-11-03T15:47:58.819Z,6.32
2022-11-03T15:50:31.542Z,6.85
2022-11-03T15:53:03.849Z,6.60
2022-11-03T15:55:36.259Z,6.90
2022-11-03T15:58:08.664Z,7.00
2022-11-03T16:00:41.079Z,7.50
2022-11-03T16:03:13.222Z,6.82
2022-11-03T16:05:45.453Z,6.72
2022-11-03T16:08:17.931Z,8.07
2022-11-03T16:10:56.249Z,7.40
2022-11-03T16:13:30.666Z,6.88
2022-11-03T16:16:03.195Z,8.07
2022-11-03T16:18:35.975Z,7.93
2022-11-03T16:21:08.871Z,8.18
2022-11-03T16:23:41.485Z,7.60
2022-11-03T16:26:14.178Z,6.85
2022-11-03T16:28:46.317Z,7.28
2022-11-03T16:31:18.497Z,6.43
2022-11-03T16:33:51.728Z,6.07
2022-11-03T16:36:23.789Z,7.75
2022-11-03T16:38:55.891Z,7.47
2022-11-03T16:41:28.060Z,7.45
2022-11-03T16:44:00.378Z,8.50
2022-11-03T16:46:32.739Z,16.60
2022-11-03T16:49:04.981Z,10.00
2022-11-03T16:51:36.991Z,6.13
2022-11-03T16:54:09.520Z,5.15
2022-11-03T16:56:41.760Z,5.20
2022-11-03T16:59:15.222Z,5.20
2022-11-03T17:01:47.380Z,5.55
2022-11-03T17:04:19.743Z,5.32
2022-11-03T17:06:51.738Z,5.93
2022-11-03T17:09:23.708Z,5.65
2022-11-03T17:11:55.780Z,6.28
2022-11-03T17:14:27.962Z,5.40
2022-11-03T17:17:00.035Z,6.03
2022-11-03T17:19:32.737Z,5.25
2022-11-03T17:22:05.258Z,5.65
2022-11-03T17:24:37.869Z,5.32
2022-11-03T17:27:28.352Z,5.60
2022-11-03T17:30:09.122Z,5.50
2022-11-03T17:32:56.141Z,5.22
2022-11-03T17:35:42.128Z,4.93
2022-11-03T17:38:17.813Z,5.20
2022-11-03T17:40:50.530Z,5.85
2022-11-03T17:43:25.812Z,5.53
2022-11-03T17:45:59.164Z,5.63
2022-11-03T17:48:31.749Z,6.00
2022-11-03T17:51:09.528Z,5.28
2022-11-03T17:53:43.351Z,5.70
2022-11-03T17:56:30.227Z,5.60
2022-11-03T17:59:03.048Z,5.93
2022-11-03T18:01:36.544Z,4.93
2022-11-03T18:06:47.155Z,5.57
2022-11-03T18:09:19.226Z,6.30
2022-11-03T18:12:10.673Z,5.85
2022-11-03T18:15:04.530Z,5.97
2022-11-03T18:17:38.689Z,5.63
2022-11-03T18:20:20.147Z,6.15
2022-11-03T18:23:15.557Z,6.35
2022-11-03T18:25:53.904Z,5.22
2022-11-03T18:28:27.052Z,8.02
2022-11-03T18:30:59.700Z,8.32
2022-11-03T18:33:36.636Z,6.30
2022-11-03T18:36:11.874Z,6.30
2022-11-03T18:38:46.524Z,5.57
2022-11-03T18:41:39.202Z,6.32
2022-11-03T18:44:21.818Z,6.00
2022-11-03T18:46:58.165Z,5.95
2022-11-03T18:49:33.256Z,5.90
2022-11-03T18:52:15.629Z,6.40
2022-11-03T18:54:53.528Z,6.38
2022-11-03T18:57:26.621Z,6.20
2022-11-03T18:59:59.345Z,5.90
2022-11-03T19:02:33.521Z,6.70
2022-11-03T19:05:12.478Z,7.43
2022-11-03T19:07:49.168Z,7.45
2022-11-03T19:10:22.384Z,7.88
2022-11-03T19:12:55.593Z,8.20
2022-11-03T19:15:28.095Z,7.07
2022-11-03T19:18:02.448Z,6.47
2022-11-03T19:20:36.174Z,6.72
2022-11-03T19:23:10.054Z,6.70
2022-11-03T19:25:44.058Z,7.10
2022-11-03T19:28:21.024Z,6.75
2022-11-03T19:30:57.719Z,7.30
2022-11-03T19:33:31.128Z,6.80
2022-11-03T19:36:11.385Z,6.85
2022-11-03T19:38:43.712Z,6.22
2022-11-03T19:41:36.249Z,7.47
2022-11-03T19:44:29.273Z,6.80
2022-11-03T19:47:01.952Z,7.95
2022-11-03T19:49:35.235Z,9.45
2022-11-03T19:52:09.556Z,7.22
2022-11-03T19:54:47.919Z,6.93
2022-11-03T19:57:20.821Z,7.20
2022-11-03T19:59:58.779Z,7.93
2022-11-03T20:02:33.521Z,7.30
2022-11-03T20:05:06.951Z,8.02
2022-11-03T20:07:40.999Z,7.28
2022-11-03T20:10:16.678Z,7.63
2022-11-03T20:12:50.309Z,7.40
2022-11-03T20:15:23.056Z,7.30
2022-11-03T20:17:55.633Z,7.13
2022-11-03T20:20:34.341Z,7.55
2022-11-03T20:23:09.053Z,6.40
2022-11-03T20:25:50.656Z,7.78
2022-11-03T20:28:28.701Z,6.53
2022-11-03T20:31:03.831Z,5.80
2022-11-03T20:33:36.284Z,6.13
2022-11-03T20:36:17.211Z,6.05
2022-11-03T20:38:59.604Z,5.80
2022-11-03T20:41:33.398Z,5.85
2022-11-03T20:44:05.742Z,5.57
2022-11-03T20:46:40.271Z,6.63
2022-11-03T20:49:13.243Z,7.20
2022-11-03T20:51:47.189Z,5.00
2022-11-03T20:54:21.005Z,4.63
2022-11-03T20:56:54.075Z,4.90
2022-11-03T20:59:32.088Z,5.20
2022-11-03T21:02:13.386Z,4.80
2022-11-03T21:04:48.924Z,4.47
2022-11-03T21:07:23.066Z,5.28
2022-11-03T21:09:57.085Z,4.50
2022-11-03T21:12:29.284Z,4.72
2022-11-03T21:15:20.074Z,5.38
2022-11-03T21:18:34.067Z,4.57
2022-11-03T21:21:26.276Z,3.83
2022-11-03T21:23:58.702Z,3.80
2022-11-03T21:26:30.779Z,4.10
2022-11-03T21:29:03.711Z,3.70
2022-11-03T21:31:35.919Z,4.13
2022-11-03T21:34:08.787Z,3.67
2022-11-03T21:36:41.326Z,3.72
2022-11-03T21:39:13.561Z,3.70
2022-11-03T21:42:04.191Z,3.70
2022-11-03T21:44:57.896Z,4.00
2022-11-03T21:47:30.647Z,4.75
2022-11-03T21:50:03.201Z,3.72
2022-11-03T21:52:36.040Z,4.22
2022-11-03T21:55:09.525Z,3.83
2022-11-03T21:57:41.754Z,4.43
2022-11-03T22:00:14.663Z,4.90
2022-11-03T22:02:48.412Z,5.00
2022-11-03T22:05:20.809Z,6.05
2022-11-03T22:07:53.522Z,5.90
2022-11-03T22:10:25.823Z,6.47
2022-11-03T22:12:58.382Z,6.10
2022-11-03T22:15:49.633Z,6.15
2022-11-03T22:18:41.365Z,5.78
2022-11-03T22:21:31.804Z,6.45
2022-11-03T22:24:42.069Z,5.60
2022-11-03T22:27:34.619Z,6.30
2022-11-03T22:30:26.124Z,5.75
2022-11-03T22:33:18.169Z,5.40
2022-11-03T22:36:08.566Z,5.90
2022-11-03T22:39:14.636Z,4.95
2022-11-03T22:42:24.772Z,4.40
2022-11-03T22:45:35.574Z,4.10
2022-11-03T22:48:25.046Z,3.13
2022-11-03T22:51:07.712Z,3.13
2022-11-03T22:54:02.634Z,2.33
2022-11-03T22:56:41.852Z,2.42
2022-11-03T22:59:13.915Z,2.60
2022-11-03T23:01:46.154Z,2.03
2022-11-03T23:04:18.254Z,1.95
2022-11-03T23:06:50.335Z,2.65
2022-11-03T23:09:23.799Z,2.25
2022-11-03T23:11:56.174Z,1.90
2022-11-03T23:14:48.258Z,2.00
2022-11-03T23:17:58.595Z,1.80
2022-11-03T23:21:08.483Z,1.55
2022-11-03T23:23:59.116Z,1.50
2022-11-03T23:26:51.170Z,1.90
2022-11-03T23:29:23.454Z,1.70
2022-11-03T23:31:56.538Z,1.50
2022-11-03T23:34:30.322Z,1.35
2022-11-03T23:37:03.257Z,1.63
2022-11-03T23:39:35.201Z,1.52
2022-11-03T23:42:07.532Z,1.33
2022-11-03T23:44:58.112Z,1.70
2022-11-03T23:48:08.609Z,1.70
2022-11-03T23:51:00.440Z,1.60
2022-11-03T23:53:32.711Z,1.30
2022-11-03T23:56:23.650Z,1.70
2022-11-03T23:59:17.045Z,1.45
